sensor_id;sensor_type;location;lat;lon;timestamp;temperature;humidity
63371;DHT22;72561;48.336;14.472;2023-10-13T00:03:09;24.50;58.80
63371;DHT22;72561;48.336;14.472;2023-10-13T00:06:31;24.50;58.80
63371;DHT22;72561;48.336;14.472;2023-10-13T00:10:22;24.50;58.20
63371;DHT22;72561;48.336;14.472;2023-10-13T00:14:38;24.50;58.20
63371;DHT22;72561;48.336;14.472;2023-10-13T00:17:59;24.40;58.80
63371;DHT22;72561;48.336;14.472;2023-10-13T00:21:20;24.50;58.80
63371;DHT22;72561;48.336;14.472;2023-10-13T00:24:42;24.50;58.80
63371;DHT22;72561;48.336;14.472;2023-10-13T00:28:05;24.50;58.80
63371;DHT22;72561;48.336;14.472;2023-10-13T00:31:27;24.50;58.80
63371;DHT22;72561;48.336;14.472;2023-10-13T00:34:48;24.50;58.80
63371;DHT22;72561;48.336;14.472;2023-10-13T00:38:09;24.50;58.80
63371;DHT22;72561;48.336;14.472;2023-10-13T00:41:30;24.50;58.80
63371;DHT22;72561;48.336;14.472;2023-10-13T00:44:51;24.40;58.80
63371;DHT22;72561;48.336;14.472;2023-10-13T00:48:32;24.50;58.30
63371;DHT22;72561;48.336;14.472;2023-10-13T00:51:54;24.50;58.90
63371;DHT22;72561;48.336;14.472;2023-10-13T00:55:15;24.40;58.80
63371;DHT22;72561;48.336;14.472;2023-10-13T00:58:36;24.50;58.80
63371;DHT22;72561;48.336;14.472;2023-10-13T01:01:57;24.40;58.80
63371;DHT22;72561;48.336;14.472;2023-10-13T01:05:20;24.50;58.90
63371;DHT22;72561;48.336;14.472;2023-10-13T01:08:44;24.50;58.90
63371;DHT22;72561;48.336;14.472;2023-10-13T01:12:06;24.40;58.80
63371;DHT22;72561;48.336;14.472;2023-10-13T01:17:24;24.40;58.20
63371;DHT22;72561;48.336;14.472;2023-10-13T01:20:45;24.40;58.80
63371;DHT22;72561;48.336;14.472;2023-10-13T01:24:08;24.40;58.80
63371;DHT22;72561;48.336;14.472;2023-10-13T01:27:29;24.40;58.80
63371;DHT22;72561;48.336;14.472;2023-10-13T01:30:50;24.40;58.80
63371;DHT22;72561;48.336;14.472;2023-10-13T01:34:13;24.40;58.80
63371;DHT22;72561;48.336;14.472;2023-10-13T01:40:03;24.40;58.20
63371;DHT22;72561;48.336;14.472;2023-10-13T01:43:25;24.40;58.80
63371;DHT22;72561;48.336;14.472;2023-10-13T01:50:45;24.40;58.20
63371;DHT22;72561;48.336;14.472;2023-10-13T01:54:06;24.40;58.80
63371;DHT22;72561;48.336;14.472;2023-10-13T01:57:27;24.40;58.80
63371;DHT22;72561;48.336;14.472;2023-10-13T02:01:45;24.40;58.20
63371;DHT22;72561;48.336;14.472;2023-10-13T02:07:27;24.40;58.20
63371;DHT22;72561;48.336;14.472;2023-10-13T02:11:26;24.40;58.20
63371;DHT22;72561;48.336;14.472;2023-10-13T02:16:11;24.40;58.20
63371;DHT22;72561;48.336;14.472;2023-10-13T02:19:32;24.40;58.80
63371;DHT22;72561;48.336;14.472;2023-10-13T02:22:53;24.40;58.80
63371;DHT22;72561;48.336;14.472;2023-10-13T02:26:14;24.30;58.80
63371;DHT22;72561;48.336;14.472;2023-10-13T02:29:35;24.40;58.80
63371;DHT22;72561;48.336;14.472;2023-10-13T02:36:27;24.30;58.20
63371;DHT22;72561;48.336;14.472;2023-10-13T02:39:48;24.40;58.80
63371;DHT22;72561;48.336;14.472;2023-10-13T02:43:09;24.40;58.80
63371;DHT22;72561;48.336;14.472;2023-10-13T02:46:30;24.40;58.80
63371;DHT22;72561;48.336;14.472;2023-10-13T02:49:51;24.30;58.70
63371;DHT22;72561;48.336;14.472;2023-10-13T02:53:13;24.30;58.70
63371;DHT22;72561;48.336;14.472;2023-10-13T02:56:34;24.40;58.80
63371;DHT22;72561;48.336;14.472;2023-10-13T02:59:55;24.40;58.80
63371;DHT22;72561;48.336;14.472;2023-10-13T03:03:16;24.30;58.70
63371;DHT22;72561;48.336;14.472;2023-10-13T03:06:37;24.30;58.70
63371;DHT22;72561;48.336;14.472;2023-10-13T03:09:59;24.40;58.80
63371;DHT22;72561;48.336;14.472;2023-10-13T03:16:15;24.40;58.20
63371;DHT22;72561;48.336;14.472;2023-10-13T03:19:37;24.40;58.80
63371;DHT22;72561;48.336;14.472;2023-10-13T03:22:58;24.40;58.80
63371;DHT22;72561;48.336;14.472;2023-10-13T03:26:19;24.40;58.80
63371;DHT22;72561;48.336;14.472;2023-10-13T03:29:40;24.40;58.80
63371;DHT22;72561;48.336;14.472;2023-10-13T03:33:04;24.40;58.80
63371;DHT22;72561;48.336;14.472;2023-10-13T03:36:26;24.40;58.80
63371;DHT22;72561;48.336;14.472;2023-10-13T03:39:50;24.40;58.80
63371;DHT22;72561;48.336;14.472;2023-10-13T03:43:12;24.40;58.80
63371;DHT22;72561;48.336;14.472;2023-10-13T03:51:50;24.40;58.20
63371;DHT22;72561;48.336;14.472;2023-10-13T03:59:17;24.40;58.30
63371;DHT22;72561;48.336;14.472;2023-10-13T04:04:18;24.40;58.30
63371;DHT22;72561;48.336;14.472;2023-10-13T04:07:40;24.40;58.90
63371;DHT22;72561;48.336;14.472;2023-10-13T04:11:01;24.40;59.00
63371;DHT22;72561;48.336;14.472;2023-10-13T04:14:22;24.40;59.00
63371;DHT22;72561;48.336;14.472;2023-10-13T04:17:43;24.40;59.00
63371;DHT22;72561;48.336;14.472;2023-10-13T04:21:39;24.40;58.40
63371;DHT22;72561;48.336;14.472;2023-10-13T04:25:00;24.40;59.00
63371;DHT22;72561;48.336;14.472;2023-10-13T04:28:21;24.40;59.00
63371;DHT22;72561;48.336;14.472;2023-10-13T04:31:42;24.40;59.00
63371;DHT22;72561;48.336;14.472;2023-10-13T04:35:04;24.40;59.00
63371;DHT22;72561;48.336;14.472;2023-10-13T04:40:44;24.50;58.40
63371;DHT22;72561;48.336;14.472;2023-10-13T04:50:23;24.50;58.60
63371;DHT22;72561;48.336;14.472;2023-10-13T04:53:44;24.50;59.00
63371;DHT22;72561;48.336;14.472;2023-10-13T04:57:05;24.50;58.90
63371;DHT22;72561;48.336;14.472;2023-10-13T05:00:27;24.50;58.90
63371;DHT22;72561;48.336;14.472;2023-10-13T05:06:33;24.50;58.40
63371;DHT22;72561;48.336;14.472;2023-10-13T05:09:54;24.50;58.90
63371;DHT22;72561;48.336;14.472;2023-10-13T05:13:15;24.50;58.90
63371;DHT22;72561;48.336;14.472;2023-10-13T05:16:36;24.50;58.90
63371;DHT22;72561;48.336;14.472;2023-10-13T05:19:58;24.50;58.90
63371;DHT22;72561;48.336;14.472;2023-10-13T05:28:07;24.40;58.30
63371;DHT22;72561;48.336;14.472;2023-10-13T05:31:28;24.50;59.00
63371;DHT22;72561;48.336;14.472;2023-10-13T05:34:49;24.40;58.80
63371;DHT22;72561;48.336;14.472;2023-10-13T05:38:10;24.40;58.80
63371;DHT22;72561;48.336;14.472;2023-10-13T05:41:31;24.40;58.80
63371;DHT22;72561;48.336;14.472;2023-10-13T05:46:03;24.40;58.20
63371;DHT22;72561;48.336;14.472;2023-10-13T05:51:17;24.40;58.30
63371;DHT22;72561;48.336;14.472;2023-10-13T05:54:37;24.40;58.80
63371;DHT22;72561;48.336;14.472;2023-10-13T05:57:59;24.30;58.80
63371;DHT22;72561;48.336;14.472;2023-10-13T06:01:19;24.40;58.80
63371;DHT22;72561;48.336;14.472;2023-10-13T06:04:40;24.40;58.90
63371;DHT22;72561;48.336;14.472;2023-10-13T06:08:05;24.30;58.80
63371;DHT22;72561;48.336;14.472;2023-10-13T06:11:26;24.40;58.80
63371;DHT22;72561;48.336;14.472;2023-10-13T06:14:47;24.40;58.80
63371;DHT22;72561;48.336;14.472;2023-10-13T06:19:52;24.40;58.30
63371;DHT22;72561;48.336;14.472;2023-10-13T06:23:13;24.40;58.90
63371;DHT22;72561;48.336;14.472;2023-10-13T06:31:28;24.40;58.30
63371;DHT22;72561;48.336;14.472;2023-10-13T06:34:49;24.40;58.80
63371;DHT22;72561;48.336;14.472;2023-10-13T06:39:42;24.30;58.20
63371;DHT22;72561;48.336;14.472;2023-10-13T06:43:03;24.30;58.80
63371;DHT22;72561;48.336;14.472;2023-10-13T06:46:25;24.30;58.80
63371;DHT22;72561;48.336;14.472;2023-10-13T06:49:47;24.30;58.80
63371;DHT22;72561;48.336;14.472;2023-10-13T06:53:08;24.30;58.80
63371;DHT22;72561;48.336;14.472;2023-10-13T06:56:30;24.30;58.80
63371;DHT22;72561;48.336;14.472;2023-10-13T06:59:51;24.30;58.80
63371;DHT22;72561;48.336;14.472;2023-10-13T07:03:12;24.30;58.80
63371;DHT22;72561;48.336;14.472;2023-10-13T07:07:34;24.30;58.20
63371;DHT22;72561;48.336;14.472;2023-10-13T07:10:56;24.30;58.80
63371;DHT22;72561;48.336;14.472;2023-10-13T07:14:16;24.30;58.80
63371;DHT22;72561;48.336;14.472;2023-10-13T07:17:37;24.30;58.80
63371;DHT22;72561;48.336;14.472;2023-10-13T07:20:59;24.30;58.80
63371;DHT22;72561;48.336;14.472;2023-10-13T07:24:21;24.30;58.80
63371;DHT22;72561;48.336;14.472;2023-10-13T07:27:42;24.30;58.80
63371;DHT22;72561;48.336;14.472;2023-10-13T07:31:03;24.30;58.80
63371;DHT22;72561;48.336;14.472;2023-10-13T07:34:24;24.30;58.80
63371;DHT22;72561;48.336;14.472;2023-10-13T07:37:45;24.30;58.80
63371;DHT22;72561;48.336;14.472;2023-10-13T07:41:08;24.30;58.80
63371;DHT22;72561;48.336;14.472;2023-10-13T07:44:29;24.30;58.80
63371;DHT22;72561;48.336;14.472;2023-10-13T07:47:50;24.30;58.80
63371;DHT22;72561;48.336;14.472;2023-10-13T07:51:11;24.30;58.80
63371;DHT22;72561;48.336;14.472;2023-10-13T07:55:58;24.30;58.30
63371;DHT22;72561;48.336;14.472;2023-10-13T08:00:49;24.30;58.30
63371;DHT22;72561;48.336;14.472;2023-10-13T08:04:11;24.30;59.00
63371;DHT22;72561;48.336;14.472;2023-10-13T08:07:32;24.40;59.10
63371;DHT22;72561;48.336;14.472;2023-10-13T08:10:53;24.30;59.10
63371;DHT22;72561;48.336;14.472;2023-10-13T08:14:13;24.40;59.20
63371;DHT22;72561;48.336;14.472;2023-10-13T08:17:36;24.40;59.20
63371;DHT22;72561;48.336;14.472;2023-10-13T08:20:57;24.40;59.20
63371;DHT22;72561;48.336;14.472;2023-10-13T08:28:22;24.40;58.60
63371;DHT22;72561;48.336;14.472;2023-10-13T08:31:43;24.40;59.20
63371;DHT22;72561;48.336;14.472;2023-10-13T08:37:02;24.40;58.60
63371;DHT22;72561;48.336;14.472;2023-10-13T08:40:23;24.40;59.30
63371;DHT22;72561;48.336;14.472;2023-10-13T08:43:45;24.40;59.20
63371;DHT22;72561;48.336;14.472;2023-10-13T08:47:07;24.40;59.10
63371;DHT22;72561;48.336;14.472;2023-10-13T08:50:28;24.40;58.90
63371;DHT22;72561;48.336;14.472;2023-10-13T08:53:52;24.50;58.80
63371;DHT22;72561;48.336;14.472;2023-10-13T08:59:28;24.50;58.30
63371;DHT22;72561;48.336;14.472;2023-10-13T09:02:50;24.50;58.60
63371;DHT22;72561;48.336;14.472;2023-10-13T09:06:13;24.50;58.60
63371;DHT22;72561;48.336;14.472;2023-10-13T09:09:45;24.50;58.50
63371;DHT22;72561;48.336;14.472;2023-10-13T09:13:07;24.50;58.40
63371;DHT22;72561;48.336;14.472;2023-10-13T09:16:29;24.50;58.30
63371;DHT22;72561;48.336;14.472;2023-10-13T09:20:16;24.50;57.70
63371;DHT22;72561;48.336;14.472;2023-10-13T09:23:45;24.50;58.30
63371;DHT22;72561;48.336;14.472;2023-10-13T09:27:07;24.50;58.20
63371;DHT22;72561;48.336;14.472;2023-10-13T09:30:30;24.50;58.10
63371;DHT22;72561;48.336;14.472;2023-10-13T09:33:51;24.60;58.10
63371;DHT22;72561;48.336;14.472;2023-10-13T09:37:14;24.60;58.10
63371;DHT22;72561;48.336;14.472;2023-10-13T09:40:35;24.60;58.00
63371;DHT22;72561;48.336;14.472;2023-10-13T09:46:19;24.60;57.90
63371;DHT22;72561;48.336;14.472;2023-10-13T09:50:19;24.60;57.80
63371;DHT22;72561;48.336;14.472;2023-10-13T09:53:43;24.70;58.50
63371;DHT22;72561;48.336;14.472;2023-10-13T09:57:10;24.70;58.90
63371;DHT22;72561;48.336;14.472;2023-10-13T10:00:34;24.80;59.00
63371;DHT22;72561;48.336;14.472;2023-10-13T10:04:06;24.80;58.90
63371;DHT22;72561;48.336;14.472;2023-10-13T10:07:29;24.90;58.50
63371;DHT22;72561;48.336;14.472;2023-10-13T10:10:59;24.90;58.20
63371;DHT22;72561;48.336;14.472;2023-10-13T10:14:42;25.00;58.50
63371;DHT22;72561;48.336;14.472;2023-10-13T10:18:20;25.00;58.60
63371;DHT22;72561;48.336;14.472;2023-10-13T10:21:42;25.10;58.80
63371;DHT22;72561;48.336;14.472;2023-10-13T10:27:43;25.20;58.30
63371;DHT22;72561;48.336;14.472;2023-10-13T10:31:15;25.20;58.60
63371;DHT22;72561;48.336;14.472;2023-10-13T10:35:59;25.30;58.00
63371;DHT22;72561;48.336;14.472;2023-10-13T10:39:35;25.30;58.10
63371;DHT22;72561;48.336;14.472;2023-10-13T10:42:56;25.30;58.00
63371;DHT22;72561;48.336;14.472;2023-10-13T10:46:25;25.40;58.00
63371;DHT22;72561;48.336;14.472;2023-10-13T10:49:47;25.40;57.90
63371;DHT22;72561;48.336;14.472;2023-10-13T10:53:09;25.40;57.70
63371;DHT22;72561;48.336;14.472;2023-10-13T10:56:30;25.40;57.50
63371;DHT22;72561;48.336;14.472;2023-10-13T11:00:39;25.50;57.10
63371;DHT22;72561;48.336;14.472;2023-10-13T11:04:02;25.50;57.00
63371;DHT22;72561;48.336;14.472;2023-10-13T11:07:24;25.50;56.90
63371;DHT22;72561;48.336;14.472;2023-10-13T11:10:46;25.50;56.70
63371;DHT22;72561;48.336;14.472;2023-10-13T11:14:07;25.60;56.60
63371;DHT22;72561;48.336;14.472;2023-10-13T11:17:29;25.60;56.50
63371;DHT22;72561;48.336;14.472;2023-10-13T11:20:56;25.60;56.40
63371;DHT22;72561;48.336;14.472;2023-10-13T11:24:17;25.60;56.40
63371;DHT22;72561;48.336;14.472;2023-10-13T11:29:32;25.60;56.30
63371;DHT22;72561;48.336;14.472;2023-10-13T11:32:57;25.70;56.20
63371;DHT22;72561;48.336;14.472;2023-10-13T11:36:18;25.70;56.00
63371;DHT22;72561;48.336;14.472;2023-10-13T11:41:21;25.70;55.60
63371;DHT22;72561;48.336;14.472;2023-10-13T11:45:30;25.70;55.50
63371;DHT22;72561;48.336;14.472;2023-10-13T11:48:51;25.70;55.50
63371;DHT22;72561;48.336;14.472;2023-10-13T11:52:12;25.80;55.50
63371;DHT22;72561;48.336;14.472;2023-10-13T11:55:33;25.70;55.40
63371;DHT22;72561;48.336;14.472;2023-10-13T11:58:54;25.80;55.50
63371;DHT22;72561;48.336;14.472;2023-10-13T12:03:57;25.80;55.20
63371;DHT22;72561;48.336;14.472;2023-10-13T12:07:18;25.80;55.30
63371;DHT22;72561;48.336;14.472;2023-10-13T12:10:39;25.80;55.20
63371;DHT22;72561;48.336;14.472;2023-10-13T12:14:00;25.80;55.20
63371;DHT22;72561;48.336;14.472;2023-10-13T12:17:22;25.80;55.10
63371;DHT22;72561;48.336;14.472;2023-10-13T12:21:24;25.90;55.00
63371;DHT22;72561;48.336;14.472;2023-10-13T12:24:45;25.90;55.30
63371;DHT22;72561;48.336;14.472;2023-10-13T12:41:33;25.90;54.50
63371;DHT22;72561;48.336;14.472;2023-10-13T12:44:54;26.20;55.10
63371;DHT22;72561;48.336;14.472;2023-10-13T12:48:15;26.20;55.00
63371;DHT22;72561;48.336;14.472;2023-10-13T12:51:36;26.30;55.00
63371;DHT22;72561;48.336;14.472;2023-10-13T12:54:57;26.30;54.90
63371;DHT22;72561;48.336;14.472;2023-10-13T12:58:19;26.30;54.80
63371;DHT22;72561;48.336;14.472;2023-10-13T13:01:41;26.30;54.80
63371;DHT22;72561;48.336;14.472;2023-10-13T13:05:02;26.30;54.90
63371;DHT22;72561;48.336;14.472;2023-10-13T13:08:23;26.30;54.90
63371;DHT22;72561;48.336;14.472;2023-10-13T13:11:44;26.30;55.10
63371;DHT22;72561;48.336;14.472;2023-10-13T13:15:07;26.30;55.10
63371;DHT22;72561;48.336;14.472;2023-10-13T13:18:29;26.30;55.10
63371;DHT22;72561;48.336;14.472;2023-10-13T13:21:50;26.30;55.30
63371;DHT22;72561;48.336;14.472;2023-10-13T13:25:11;26.30;55.20
63371;DHT22;72561;48.336;14.472;2023-10-13T13:28:32;26.30;55.30
63371;DHT22;72561;48.336;14.472;2023-10-13T13:31:55;26.30;55.30
63371;DHT22;72561;48.336;14.472;2023-10-13T13:35:16;26.20;55.30
63371;DHT22;72561;48.336;14.472;2023-10-13T13:38:37;26.30;55.50
63371;DHT22;72561;48.336;14.472;2023-10-13T13:41:58;26.30;55.50
63371;DHT22;72561;48.336;14.472;2023-10-13T13:45:19;26.30;55.60
63371;DHT22;72561;48.336;14.472;2023-10-13T13:48:42;26.20;55.50
63371;DHT22;72561;48.336;14.472;2023-10-13T13:52:03;26.30;55.70
63371;DHT22;72561;48.336;14.472;2023-10-13T13:55:24;26.30;55.80
63371;DHT22;72561;48.336;14.472;2023-10-13T13:58:47;26.30;55.80
63371;DHT22;72561;48.336;14.472;2023-10-13T14:02:09;26.30;55.80
63371;DHT22;72561;48.336;14.472;2023-10-13T14:05:31;26.30;55.90
63371;DHT22;72561;48.336;14.472;2023-10-13T14:10:47;26.30;55.40
63371;DHT22;72561;48.336;14.472;2023-10-13T14:14:10;26.30;55.90
63371;DHT22;72561;48.336;14.472;2023-10-13T14:17:32;26.20;55.80
63371;DHT22;72561;48.336;14.472;2023-10-13T14:20:53;26.20;55.80
63371;DHT22;72561;48.336;14.472;2023-10-13T14:24:14;26.20;55.80
63371;DHT22;72561;48.336;14.472;2023-10-13T14:27:37;26.20;55.80
63371;DHT22;72561;48.336;14.472;2023-10-13T14:30:58;26.20;55.80
63371;DHT22;72561;48.336;14.472;2023-10-13T14:34:20;26.20;55.80
63371;DHT22;72561;48.336;14.472;2023-10-13T14:37:42;26.20;55.80
63371;DHT22;72561;48.336;14.472;2023-10-13T14:41:03;26.20;55.80
63371;DHT22;72561;48.336;14.472;2023-10-13T14:46:42;26.20;55.30
63371;DHT22;72561;48.336;14.472;2023-10-13T14:50:03;26.20;55.90
63371;DHT22;72561;48.336;14.472;2023-10-13T14:53:25;26.10;55.80
63371;DHT22;72561;48.336;14.472;2023-10-13T14:56:46;26.10;55.80
63371;DHT22;72561;48.336;14.472;2023-10-13T15:00:08;26.10;55.80
63371;DHT22;72561;48.336;14.472;2023-10-13T15:03:32;26.10;55.90
63371;DHT22;72561;48.336;14.472;2023-10-13T15:06:53;26.10;55.90
63371;DHT22;72561;48.336;14.472;2023-10-13T15:10:14;26.10;55.90
63371;DHT22;72561;48.336;14.472;2023-10-13T15:13:35;26.10;55.90
63371;DHT22;72561;48.336;14.472;2023-10-13T15:16:57;26.10;56.00
63371;DHT22;72561;48.336;14.472;2023-10-13T15:20:19;26.10;56.00
63371;DHT22;72561;48.336;14.472;2023-10-13T15:23:40;26.10;56.00
63371;DHT22;72561;48.336;14.472;2023-10-13T15:27:01;26.00;56.00
63371;DHT22;72561;48.336;14.472;2023-10-13T15:30:23;26.00;56.10
63371;DHT22;72561;48.336;14.472;2023-10-13T15:33:50;26.00;56.10
63371;DHT22;72561;48.336;14.472;2023-10-13T15:37:13;26.00;56.10
63371;DHT22;72561;48.336;14.472;2023-10-13T15:40:40;26.00;56.10
63371;DHT22;72561;48.336;14.472;2023-10-13T15:44:01;26.00;56.10
63371;DHT22;72561;48.336;14.472;2023-10-13T15:47:23;26.00;56.20
63371;DHT22;72561;48.336;14.472;2023-10-13T15:50:46;26.00;56.20
63371;DHT22;72561;48.336;14.472;2023-10-13T15:54:15;26.00;56.20
63371;DHT22;72561;48.336;14.472;2023-10-13T15:57:38;25.90;56.10
63371;DHT22;72561;48.336;14.472;2023-10-13T16:01:01;25.90;56.20
63371;DHT22;72561;48.336;14.472;2023-10-13T16:04:27;25.90;56.20
63371;DHT22;72561;48.336;14.472;2023-10-13T16:07:52;25.90;56.30
63371;DHT22;72561;48.336;14.472;2023-10-13T16:11:18;25.90;56.30
63371;DHT22;72561;48.336;14.472;2023-10-13T16:14:43;25.90;56.30
63371;DHT22;72561;48.336;14.472;2023-10-13T16:18:05;25.90;56.30
63371;DHT22;72561;48.336;14.472;2023-10-13T16:21:30;25.90;56.40
63371;DHT22;72561;48.336;14.472;2023-10-13T16:24:52;25.90;56.40
63371;DHT22;72561;48.336;14.472;2023-10-13T16:28:20;25.90;56.40
63371;DHT22;72561;48.336;14.472;2023-10-13T16:32:25;25.90;55.90
63371;DHT22;72561;48.336;14.472;2023-10-13T16:35:59;25.90;56.00
63371;DHT22;72561;48.336;14.472;2023-10-13T16:39:22;25.80;56.60
63371;DHT22;72561;48.336;14.472;2023-10-13T16:42:45;25.80;56.80
63371;DHT22;72561;48.336;14.472;2023-10-13T16:46:12;25.80;56.80
63371;DHT22;72561;48.336;14.472;2023-10-13T16:49:35;25.80;56.90
63371;DHT22;72561;48.336;14.472;2023-10-13T16:53:00;25.80;56.90
63371;DHT22;72561;48.336;14.472;2023-10-13T16:56:21;25.90;57.00
63371;DHT22;72561;48.336;14.472;2023-10-13T16:59:42;25.80;56.90
63371;DHT22;72561;48.336;14.472;2023-10-13T17:03:03;25.80;56.90
63371;DHT22;72561;48.336;14.472;2023-10-13T17:06:24;25.80;57.00
63371;DHT22;72561;48.336;14.472;2023-10-13T17:09:46;25.80;57.00
63371;DHT22;72561;48.336;14.472;2023-10-13T17:13:08;25.80;57.00
63371;DHT22;72561;48.336;14.472;2023-10-13T17:16:29;25.80;57.00
63371;DHT22;72561;48.336;14.472;2023-10-13T17:19:50;25.80;56.90
63371;DHT22;72561;48.336;14.472;2023-10-13T17:23:11;25.80;57.10
63371;DHT22;72561;48.336;14.472;2023-10-13T17:26:34;25.80;57.10
63371;DHT22;72561;48.336;14.472;2023-10-13T17:29:55;25.80;57.00
63371;DHT22;72561;48.336;14.472;2023-10-13T17:33:16;25.80;57.10
63371;DHT22;72561;48.336;14.472;2023-10-13T17:36:37;25.80;57.10
63371;DHT22;72561;48.336;14.472;2023-10-13T17:39:58;25.80;57.10
63371;DHT22;72561;48.336;14.472;2023-10-13T17:43:20;25.80;57.20
63371;DHT22;72561;48.336;14.472;2023-10-13T17:46:41;25.80;57.20
63371;DHT22;72561;48.336;14.472;2023-10-13T17:50:02;25.80;57.20
63371;DHT22;72561;48.336;14.472;2023-10-13T17:53:24;25.80;57.30
63371;DHT22;72561;48.336;14.472;2023-10-13T17:59:20;25.80;56.60
63371;DHT22;72561;48.336;14.472;2023-10-13T18:02:41;25.80;57.30
63371;DHT22;72561;48.336;14.472;2023-10-13T18:06:03;25.80;57.40
63371;DHT22;72561;48.336;14.472;2023-10-13T18:09:24;25.70;57.40
63371;DHT22;72561;48.336;14.472;2023-10-13T18:12:45;25.70;57.40
63371;DHT22;72561;48.336;14.472;2023-10-13T18:16:13;25.70;57.40
63371;DHT22;72561;48.336;14.472;2023-10-13T18:19:34;25.70;57.60
63371;DHT22;72561;48.336;14.472;2023-10-13T18:22:55;25.70;57.50
63371;DHT22;72561;48.336;14.472;2023-10-13T18:26:16;25.70;57.50
63371;DHT22;72561;48.336;14.472;2023-10-13T18:32:36;25.70;56.80
63371;DHT22;72561;48.336;14.472;2023-10-13T18:35:57;25.70;57.60
63371;DHT22;72561;48.336;14.472;2023-10-13T18:39:30;25.70;57.40
63371;DHT22;72561;48.336;14.472;2023-10-13T18:42:51;25.70;57.60
63371;DHT22;72561;48.336;14.472;2023-10-13T18:46:12;25.70;57.70
63371;DHT22;72561;48.336;14.472;2023-10-13T18:49:35;25.60;57.70
63371;DHT22;72561;48.336;14.472;2023-10-13T18:52:56;25.60;57.70
63371;DHT22;72561;48.336;14.472;2023-10-13T18:56:18;25.60;57.80
63371;DHT22;72561;48.336;14.472;2023-10-13T18:59:40;25.60;57.80
63371;DHT22;72561;48.336;14.472;2023-10-13T19:03:01;25.60;57.90
63371;DHT22;72561;48.336;14.472;2023-10-13T19:06:23;25.60;57.90
63371;DHT22;72561;48.336;14.472;2023-10-13T19:09:44;25.60;57.90
63371;DHT22;72561;48.336;14.472;2023-10-13T19:13:05;25.60;58.00
63371;DHT22;72561;48.336;14.472;2023-10-13T19:16:26;25.60;57.90
63371;DHT22;72561;48.336;14.472;2023-10-13T19:19:47;25.60;58.00
63371;DHT22;72561;48.336;14.472;2023-10-13T19:23:09;25.60;58.00
63371;DHT22;72561;48.336;14.472;2023-10-13T19:26:31;25.60;58.00
63371;DHT22;72561;48.336;14.472;2023-10-13T19:29:52;25.60;58.10
63371;DHT22;72561;48.336;14.472;2023-10-13T19:33:13;25.60;58.10
63371;DHT22;72561;48.336;14.472;2023-10-13T19:36:34;25.60;58.10
63371;DHT22;72561;48.336;14.472;2023-10-13T19:39:56;25.60;58.20
63371;DHT22;72561;48.336;14.472;2023-10-13T19:43:17;25.60;58.20
63371;DHT22;72561;48.336;14.472;2023-10-13T19:46:38;25.60;58.20
63371;DHT22;72561;48.336;14.472;2023-10-13T19:49:59;25.60;58.20
63371;DHT22;72561;48.336;14.472;2023-10-13T19:53:20;25.60;58.20
63371;DHT22;72561;48.336;14.472;2023-10-13T19:59:36;25.60;57.60
63371;DHT22;72561;48.336;14.472;2023-10-13T20:02:57;25.50;58.20
63371;DHT22;72561;48.336;14.472;2023-10-13T20:06:18;25.50;58.20
63371;DHT22;72561;48.336;14.472;2023-10-13T20:09:39;25.50;58.30
63371;DHT22;72561;48.336;14.472;2023-10-13T20:13:00;25.50;58.30
63371;DHT22;72561;48.336;14.472;2023-10-13T20:18:51;25.50;57.60
63371;DHT22;72561;48.336;14.472;2023-10-13T20:22:13;25.50;58.40
63371;DHT22;72561;48.336;14.472;2023-10-13T20:25:34;25.50;58.40
63371;DHT22;72561;48.336;14.472;2023-10-13T20:28:55;25.50;58.50
63371;DHT22;72561;48.336;14.472;2023-10-13T20:32:16;25.50;58.50
63371;DHT22;72561;48.336;14.472;2023-10-13T20:35:46;25.50;58.60
63371;DHT22;72561;48.336;14.472;2023-10-13T20:39:07;25.50;58.60
63371;DHT22;72561;48.336;14.472;2023-10-13T20:42:29;25.50;58.70
63371;DHT22;72561;48.336;14.472;2023-10-13T20:45:50;25.50;58.70
63371;DHT22;72561;48.336;14.472;2023-10-13T20:49:11;25.50;58.70
63371;DHT22;72561;48.336;14.472;2023-10-13T20:54:20;25.50;58.00
63371;DHT22;72561;48.336;14.472;2023-10-13T20:59:52;25.50;58.00
63371;DHT22;72561;48.336;14.472;2023-10-13T21:03:13;25.50;58.90
63371;DHT22;72561;48.336;14.472;2023-10-13T21:06:34;25.40;58.70
63371;DHT22;72561;48.336;14.472;2023-10-13T21:09:55;25.40;58.80
63371;DHT22;72561;48.336;14.472;2023-10-13T21:13:16;25.40;58.80
63371;DHT22;72561;48.336;14.472;2023-10-13T21:16:38;25.40;58.80
63371;DHT22;72561;48.336;14.472;2023-10-13T21:19:59;25.50;58.90
63371;DHT22;72561;48.336;14.472;2023-10-13T21:23:20;25.40;58.80
63371;DHT22;72561;48.336;14.472;2023-10-13T21:26:41;25.40;58.90
63371;DHT22;72561;48.336;14.472;2023-10-13T21:30:02;25.40;58.80
63371;DHT22;72561;48.336;14.472;2023-10-13T21:33:25;25.40;58.90
63371;DHT22;72561;48.336;14.472;2023-10-13T21:36:46;25.40;58.90
63371;DHT22;72561;48.336;14.472;2023-10-13T21:40:08;25.40;58.90
63371;DHT22;72561;48.336;14.472;2023-10-13T21:43:29;25.40;58.90
63371;DHT22;72561;48.336;14.472;2023-10-13T21:47:22;25.40;58.30
63371;DHT22;72561;48.336;14.472;2023-10-13T21:50:43;25.40;59.00
63371;DHT22;72561;48.336;14.472;2023-10-13T21:54:04;25.40;59.00
63371;DHT22;72561;48.336;14.472;2023-10-13T21:57:25;25.40;58.90
63371;DHT22;72561;48.336;14.472;2023-10-13T22:00:46;25.40;59.00
63371;DHT22;72561;48.336;14.472;2023-10-13T22:04:08;25.40;58.90
63371;DHT22;72561;48.336;14.472;2023-10-13T22:07:29;25.30;58.90
63371;DHT22;72561;48.336;14.472;2023-10-13T22:10:50;25.40;58.90
63371;DHT22;72561;48.336;14.472;2023-10-13T22:14:11;25.30;58.90
63371;DHT22;72561;48.336;14.472;2023-10-13T22:17:33;25.30;58.90
63371;DHT22;72561;48.336;14.472;2023-10-13T22:20:55;25.40;59.00
63371;DHT22;72561;48.336;14.472;2023-10-13T22:24:16;25.30;58.90
63371;DHT22;72561;48.336;14.472;2023-10-13T22:29:54;25.40;58.30
63371;DHT22;72561;48.336;14.472;2023-10-13T22:36:15;25.30;58.20
63371;DHT22;72561;48.336;14.472;2023-10-13T22:42:44;25.30;58.30
63371;DHT22;72561;48.336;14.472;2023-10-13T22:46:05;25.30;58.90
63371;DHT22;72561;48.336;14.472;2023-10-13T22:49:26;25.30;59.00
63371;DHT22;72561;48.336;14.472;2023-10-13T22:52:47;25.30;59.00
63371;DHT22;72561;48.336;14.472;2023-10-13T22:56:08;25.30;59.00
63371;DHT22;72561;48.336;14.472;2023-10-13T22:59:31;25.30;59.00
63371;DHT22;72561;48.336;14.472;2023-10-13T23:02:52;25.30;59.10
63371;DHT22;72561;48.336;14.472;2023-10-13T23:06:13;25.30;59.10